sensor_id;sensor_type;location;lat;lon;timestamp;P1;durP1;ratioP1;P2;durP2;ratioP2
6223;SDS011;3145;42.726;23.342;2024-02-28T00:00:53;30.43;;;19.87;;
6223;SDS011;3145;42.726;23.342;2024-02-28T00:03:20;37.40;;;22.17;;
6223;SDS011;3145;42.726;23.342;2024-02-28T00:05:47;33.73;;;21.47;;
6223;SDS011;3145;42.726;23.342;2024-02-28T00:08:13;29.30;;;20.80;;
6223;SDS011;3145;42.726;23.342;2024-02-28T00:10:42;36.93;;;21.87;;
6223;SDS011;3145;42.726;23.342;2024-02-28T00:13:08;32.97;;;21.77;;
6223;SDS011;3145;42.726;23.342;2024-02-28T00:15:36;30.23;;;21.63;;
6223;SDS011;3145;42.726;23.342;2024-02-28T00:18:03;34.20;;;21.77;;
6223;SDS011;3145;42.726;23.342;2024-02-28T00:20:30;33.97;;;22.17;;
6223;SDS011;3145;42.726;23.342;2024-02-28T00:22:57;36.63;;;22.30;;
6223;SDS011;3145;42.726;23.342;2024-02-28T00:25:23;33.97;;;21.77;;
6223;SDS011;3145;42.726;23.342;2024-02-28T00:27:50;30.47;;;20.57;;
6223;SDS011;3145;42.726;23.342;2024-02-28T00:30:17;31.10;;;21.23;;
6223;SDS011;3145;42.726;23.342;2024-02-28T00:32:45;36.93;;;21.77;;
6223;SDS011;3145;42.726;23.342;2024-02-28T00:35:12;46.47;;;25.30;;
6223;SDS011;3145;42.726;23.342;2024-02-28T00:37:38;36.00;;;24.70;;
6223;SDS011;3145;42.726;23.342;2024-02-28T00:40:05;40.90;;;24.40;;
6223;SDS011;3145;42.726;23.342;2024-02-28T00:42:35;34.90;;;22.03;;
6223;SDS011;3145;42.726;23.342;2024-02-28T00:45:01;36.80;;;23.37;;
6223;SDS011;3145;42.726;23.342;2024-02-28T00:47:28;37.17;;;21.73;;
6223;SDS011;3145;42.726;23.342;2024-02-28T00:49:57;37.27;;;22.27;;
6223;SDS011;3145;42.726;23.342;2024-02-28T00:52:23;38.03;;;23.33;;
6223;SDS011;3145;42.726;23.342;2024-02-28T00:54:50;37.53;;;22.27;;
6223;SDS011;3145;42.726;23.342;2024-02-28T00:57:17;33.23;;;22.53;;
6223;SDS011;3145;42.726;23.342;2024-02-28T00:59:44;34.90;;;24.10;;
6223;SDS011;3145;42.726;23.342;2024-02-28T01:02:10;31.27;;;22.13;;
6223;SDS011;3145;42.726;23.342;2024-02-28T01:04:39;36.57;;;24.07;;
6223;SDS011;3145;42.726;23.342;2024-02-28T01:07:07;34.93;;;22.60;;
6223;SDS011;3145;42.726;23.342;2024-02-28T01:09:33;38.10;;;24.03;;
6223;SDS011;3145;42.726;23.342;2024-02-28T01:12:00;37.47;;;24.47;;
6223;SDS011;3145;42.726;23.342;2024-02-28T01:14:27;43.90;;;26.10;;
6223;SDS011;3145;42.726;23.342;2024-02-28T01:16:53;40.77;;;25.47;;
6223;SDS011;3145;42.726;23.342;2024-02-28T01:19:20;38.33;;;24.63;;
6223;SDS011;3145;42.726;23.342;2024-02-28T01:21:47;38.80;;;24.10;;
6223;SDS011;3145;42.726;23.342;2024-02-28T01:24:15;47.57;;;25.70;;
6223;SDS011;3145;42.726;23.342;2024-02-28T01:26:42;39.40;;;24.17;;
6223;SDS011;3145;42.726;23.342;2024-02-28T01:29:08;41.30;;;25.23;;
6223;SDS011;3145;42.726;23.342;2024-02-28T01:31:35;55.03;;;34.00;;
6223;SDS011;3145;42.726;23.342;2024-02-28T01:34:01;71.67;;;45.17;;
6223;SDS011;3145;42.726;23.342;2024-02-28T01:36:28;87.87;;;53.97;;
6223;SDS011;3145;42.726;23.342;2024-02-28T01:38:55;74.67;;;47.00;;
6223;SDS011;3145;42.726;23.342;2024-02-28T01:41:23;65.87;;;45.17;;
6223;SDS011;3145;42.726;23.342;2024-02-28T01:43:49;48.40;;;33.93;;
6223;SDS011;3145;42.726;23.342;2024-02-28T01:46:22;55.30;;;38.57;;
6223;SDS011;3145;42.726;23.342;2024-02-28T01:48:51;50.20;;;35.93;;
6223;SDS011;3145;42.726;23.342;2024-02-28T01:51:18;47.37;;;30.97;;
6223;SDS011;3145;42.726;23.342;2024-02-28T01:53:47;56.47;;;35.13;;
6223;SDS011;3145;42.726;23.342;2024-02-28T01:56:16;51.37;;;33.03;;
6223;SDS011;3145;42.726;23.342;2024-02-28T01:58:45;54.90;;;35.00;;
6223;SDS011;3145;42.726;23.342;2024-02-28T02:01:13;46.40;;;31.70;;
6223;SDS011;3145;42.726;23.342;2024-02-28T02:03:40;54.87;;;35.67;;
6223;SDS011;3145;42.726;23.342;2024-02-28T02:06:08;58.00;;;35.63;;
6223;SDS011;3145;42.726;23.342;2024-02-28T02:08:36;50.40;;;35.67;;
6223;SDS011;3145;42.726;23.342;2024-02-28T02:11:03;49.87;;;33.30;;
6223;SDS011;3145;42.726;23.342;2024-02-28T02:13:30;49.33;;;31.37;;
6223;SDS011;3145;42.726;23.342;2024-02-28T02:15:58;50.13;;;29.60;;
6223;SDS011;3145;42.726;23.342;2024-02-28T02:18:25;44.70;;;26.83;;
6223;SDS011;3145;42.726;23.342;2024-02-28T02:20:52;41.63;;;26.07;;
6223;SDS011;3145;42.726;23.342;2024-02-28T02:23:26;37.67;;;22.20;;
6223;SDS011;3145;42.726;23.342;2024-02-28T02:25:53;40.60;;;24.67;;
6223;SDS011;3145;42.726;23.342;2024-02-28T02:28:19;30.83;;;22.73;;
6223;SDS011;3145;42.726;23.342;2024-02-28T02:30:46;37.77;;;23.80;;
6223;SDS011;3145;42.726;23.342;2024-02-28T02:33:13;38.67;;;23.97;;
6223;SDS011;3145;42.726;23.342;2024-02-28T02:35:39;46.23;;;22.93;;
6223;SDS011;3145;42.726;23.342;2024-02-28T02:38:06;37.63;;;23.17;;
6223;SDS011;3145;42.726;23.342;2024-02-28T02:40:34;36.27;;;23.60;;
6223;SDS011;3145;42.726;23.342;2024-02-28T02:43:01;35.50;;;22.00;;
6223;SDS011;3145;42.726;23.342;2024-02-28T02:45:27;46.30;;;25.60;;
6223;SDS011;3145;42.726;23.342;2024-02-28T02:47:54;50.27;;;25.90;;
6223;SDS011;3145;42.726;23.342;2024-02-28T02:50:21;46.87;;;27.03;;
6223;SDS011;3145;42.726;23.342;2024-02-28T02:52:47;43.27;;;27.47;;
6223;SDS011;3145;42.726;23.342;2024-02-28T02:55:14;43.23;;;27.00;;
6223;SDS011;3145;42.726;23.342;2024-02-28T02:57:42;52.47;;;27.73;;
6223;SDS011;3145;42.726;23.342;2024-02-28T03:00:09;51.57;;;29.47;;
6223;SDS011;3145;42.726;23.342;2024-02-28T03:02:36;47.43;;;25.33;;
6223;SDS011;3145;42.726;23.342;2024-02-28T03:05:05;40.63;;;25.53;;
6223;SDS011;3145;42.726;23.342;2024-02-28T03:07:32;36.30;;;23.23;;
6223;SDS011;3145;42.726;23.342;2024-02-28T03:09:59;34.97;;;23.93;;
6223;SDS011;3145;42.726;23.342;2024-02-28T03:12:25;37.03;;;23.53;;
6223;SDS011;3145;42.726;23.342;2024-02-28T03:14:53;38.87;;;23.60;;
6223;SDS011;3145;42.726;23.342;2024-02-28T03:17:20;45.53;;;24.97;;
6223;SDS011;3145;42.726;23.342;2024-02-28T03:19:47;43.67;;;26.23;;
6223;SDS011;3145;42.726;23.342;2024-02-28T03:22:14;46.20;;;25.47;;
6223;SDS011;3145;42.726;23.342;2024-02-28T03:24:40;46.67;;;26.80;;
6223;SDS011;3145;42.726;23.342;2024-02-28T03:27:07;44.17;;;26.93;;
6223;SDS011;3145;42.726;23.342;2024-02-28T03:29:34;47.63;;;30.57;;
6223;SDS011;3145;42.726;23.342;2024-02-28T03:32:03;43.30;;;29.33;;
6223;SDS011;3145;42.726;23.342;2024-02-28T03:34:30;44.00;;;27.73;;
6223;SDS011;3145;42.726;23.342;2024-02-28T03:36:56;46.90;;;28.40;;
6223;SDS011;3145;42.726;23.342;2024-02-28T03:39:23;42.13;;;27.77;;
6223;SDS011;3145;42.726;23.342;2024-02-28T03:41:50;49.67;;;28.17;;
6223;SDS011;3145;42.726;23.342;2024-02-28T03:44:17;44.80;;;27.70;;
6223;SDS011;3145;42.726;23.342;2024-02-28T03:46:43;44.17;;;27.53;;
6223;SDS011;3145;42.726;23.342;2024-02-28T03:49:12;48.70;;;25.80;;
6223;SDS011;3145;42.726;23.342;2024-02-28T03:51:39;51.13;;;26.33;;
6223;SDS011;3145;42.726;23.342;2024-02-28T03:54:06;48.10;;;28.83;;
6223;SDS011;3145;42.726;23.342;2024-02-28T03:56:32;43.97;;;25.70;;
6223;SDS011;3145;42.726;23.342;2024-02-28T03:59:00;42.43;;;26.60;;
6223;SDS011;3145;42.726;23.342;2024-02-28T04:01:26;45.50;;;26.47;;
6223;SDS011;3145;42.726;23.342;2024-02-28T04:03:52;47.00;;;27.13;;
6223;SDS011;3145;42.726;23.342;2024-02-28T04:06:20;43.70;;;26.83;;
6223;SDS011;3145;42.726;23.342;2024-02-28T04:08:47;43.67;;;27.57;;
6223;SDS011;3145;42.726;23.342;2024-02-28T04:11:14;46.47;;;27.63;;
6223;SDS011;3145;42.726;23.342;2024-02-28T04:13:40;40.57;;;25.90;;
6223;SDS011;3145;42.726;23.342;2024-02-28T04:16:07;42.30;;;27.37;;
6223;SDS011;3145;42.726;23.342;2024-02-28T04:18:34;47.07;;;30.17;;
6223;SDS011;3145;42.726;23.342;2024-02-28T04:21:01;47.70;;;28.63;;
6223;SDS011;3145;42.726;23.342;2024-02-28T04:23:29;49.03;;;28.90;;
6223;SDS011;3145;42.726;23.342;2024-02-28T04:25:56;43.20;;;27.97;;
6223;SDS011;3145;42.726;23.342;2024-02-28T04:28:22;44.13;;;26.53;;
6223;SDS011;3145;42.726;23.342;2024-02-28T04:30:49;51.57;;;28.47;;
6223;SDS011;3145;42.726;23.342;2024-02-28T04:33:16;45.77;;;28.90;;
6223;SDS011;3145;42.726;23.342;2024-02-28T04:35:42;53.77;;;31.17;;
6223;SDS011;3145;42.726;23.342;2024-02-28T04:38:09;56.73;;;31.33;;
6223;SDS011;3145;42.726;23.342;2024-02-28T04:40:37;52.73;;;31.77;;
6223;SDS011;3145;42.726;23.342;2024-02-28T04:43:04;52.77;;;31.60;;
6223;SDS011;3145;42.726;23.342;2024-02-28T04:45:31;46.53;;;29.90;;
6223;SDS011;3145;42.726;23.342;2024-02-28T04:47:57;50.83;;;29.10;;
6223;SDS011;3145;42.726;23.342;2024-02-28T04:50:24;46.57;;;28.33;;
6223;SDS011;3145;42.726;23.342;2024-02-28T04:52:50;51.20;;;28.40;;
6223;SDS011;3145;42.726;23.342;2024-02-28T04:55:17;46.27;;;26.93;;
6223;SDS011;3145;42.726;23.342;2024-02-28T04:57:45;50.53;;;30.37;;
6223;SDS011;3145;42.726;23.342;2024-02-28T05:00:12;54.67;;;31.20;;
6223;SDS011;3145;42.726;23.342;2024-02-28T05:02:39;49.77;;;28.97;;
6223;SDS011;3145;42.726;23.342;2024-02-28T05:05:06;52.73;;;32.70;;
6223;SDS011;3145;42.726;23.342;2024-02-28T05:07:33;60.60;;;36.43;;
6223;SDS011;3145;42.726;23.342;2024-02-28T05:09:59;58.20;;;34.70;;
6223;SDS011;3145;42.726;23.342;2024-02-28T05:12:26;66.67;;;35.83;;
6223;SDS011;3145;42.726;23.342;2024-02-28T05:14:54;57.37;;;33.93;;
6223;SDS011;3145;42.726;23.342;2024-02-28T05:17:21;55.93;;;34.00;;
6223;SDS011;3145;42.726;23.342;2024-02-28T05:19:47;50.83;;;31.67;;
6223;SDS011;3145;42.726;23.342;2024-02-28T05:22:14;58.00;;;35.57;;
6223;SDS011;3145;42.726;23.342;2024-02-28T05:24:41;58.90;;;34.93;;
6223;SDS011;3145;42.726;23.342;2024-02-28T05:27:08;55.00;;;34.67;;
6223;SDS011;3145;42.726;23.342;2024-02-28T05:29:35;53.40;;;32.83;;
6223;SDS011;3145;42.726;23.342;2024-02-28T05:32:03;61.90;;;35.20;;
6223;SDS011;3145;42.726;23.342;2024-02-28T05:34:31;61.13;;;33.73;;
6223;SDS011;3145;42.726;23.342;2024-02-28T05:36:57;52.87;;;32.67;;
6223;SDS011;3145;42.726;23.342;2024-02-28T05:39:26;74.50;;;39.10;;
6223;SDS011;3145;42.726;23.342;2024-02-28T05:41:54;71.17;;;40.97;;
6223;SDS011;3145;42.726;23.342;2024-02-28T05:44:21;65.77;;;39.93;;
6223;SDS011;3145;42.726;23.342;2024-02-28T05:46:47;67.87;;;42.43;;
6223;SDS011;3145;42.726;23.342;2024-02-28T05:49:15;72.37;;;40.73;;
6223;SDS011;3145;42.726;23.342;2024-02-28T05:51:42;73.47;;;42.10;;
6223;SDS011;3145;42.726;23.342;2024-02-28T05:54:09;72.53;;;39.70;;
6223;SDS011;3145;42.726;23.342;2024-02-28T05:56:36;59.00;;;38.93;;
6223;SDS011;3145;42.726;23.342;2024-02-28T05:59:03;83.37;;;43.83;;
6223;SDS011;3145;42.726;23.342;2024-02-28T06:01:30;85.30;;;49.13;;
6223;SDS011;3145;42.726;23.342;2024-02-28T06:03:56;79.37;;;48.07;;
6223;SDS011;3145;42.726;23.342;2024-02-28T06:06:24;73.50;;;44.67;;
6223;SDS011;3145;42.726;23.342;2024-02-28T06:08:51;76.53;;;49.10;;
6223;SDS011;3145;42.726;23.342;2024-02-28T06:11:18;93.60;;;51.33;;
6223;SDS011;3145;42.726;23.342;2024-02-28T06:13:45;50.90;;;32.20;;
6223;SDS011;3145;42.726;23.342;2024-02-28T06:16:14;54.60;;;30.53;;
6223;SDS011;3145;42.726;23.342;2024-02-28T06:18:43;52.53;;;31.13;;
6223;SDS011;3145;42.726;23.342;2024-02-28T06:21:09;54.03;;;28.77;;
6223;SDS011;3145;42.726;23.342;2024-02-28T06:23:36;61.00;;;31.63;;
6223;SDS011;3145;42.726;23.342;2024-02-28T06:26:03;62.70;;;36.57;;
6223;SDS011;3145;42.726;23.342;2024-02-28T06:28:30;60.87;;;29.97;;
6223;SDS011;3145;42.726;23.342;2024-02-28T06:30:57;51.90;;;32.37;;
6223;SDS011;3145;42.726;23.342;2024-02-28T06:33:24;49.40;;;28.03;;
6223;SDS011;3145;42.726;23.342;2024-02-28T06:35:50;49.10;;;29.37;;
6223;SDS011;3145;42.726;23.342;2024-02-28T06:38:17;44.30;;;28.87;;
6223;SDS011;3145;42.726;23.342;2024-02-28T06:40:45;45.20;;;29.80;;
6223;SDS011;3145;42.726;23.342;2024-02-28T06:43:12;52.53;;;31.50;;
6223;SDS011;3145;42.726;23.342;2024-02-28T06:45:38;75.03;;;46.13;;
6223;SDS011;3145;42.726;23.342;2024-02-28T06:48:06;81.27;;;55.63;;
6223;SDS011;3145;42.726;23.342;2024-02-28T06:50:33;68.17;;;46.80;;
6223;SDS011;3145;42.726;23.342;2024-02-28T06:53:00;48.50;;;34.67;;
6223;SDS011;3145;42.726;23.342;2024-02-28T06:55:27;37.93;;;24.80;;
6223;SDS011;3145;42.726;23.342;2024-02-28T06:57:55;34.60;;;23.57;;
6223;SDS011;3145;42.726;23.342;2024-02-28T07:00:22;39.73;;;23.10;;
6223;SDS011;3145;42.726;23.342;2024-02-28T07:02:49;41.07;;;25.50;;
6223;SDS011;3145;42.726;23.342;2024-02-28T07:05:16;38.10;;;25.10;;
6223;SDS011;3145;42.726;23.342;2024-02-28T07:07:43;41.03;;;24.33;;
6223;SDS011;3145;42.726;23.342;2024-02-28T07:10:10;45.77;;;22.87;;
6223;SDS011;3145;42.726;23.342;2024-02-28T07:12:37;46.93;;;26.63;;
6223;SDS011;3145;42.726;23.342;2024-02-28T07:15:05;38.63;;;23.77;;
6223;SDS011;3145;42.726;23.342;2024-02-28T07:17:32;39.83;;;24.33;;
6223;SDS011;3145;42.726;23.342;2024-02-28T07:19:59;41.63;;;25.80;;
6223;SDS011;3145;42.726;23.342;2024-02-28T07:22:25;37.97;;;22.93;;
6223;SDS011;3145;42.726;23.342;2024-02-28T07:24:52;40.97;;;25.07;;
6223;SDS011;3145;42.726;23.342;2024-02-28T07:27:19;30.73;;;21.30;;
6223;SDS011;3145;42.726;23.342;2024-02-28T07:29:48;38.27;;;23.70;;
6223;SDS011;3145;42.726;23.342;2024-02-28T07:32:16;36.43;;;20.47;;
6223;SDS011;3145;42.726;23.342;2024-02-28T07:34:43;36.80;;;22.53;;
6223;SDS011;3145;42.726;23.342;2024-02-28T07:37:09;33.67;;;21.07;;
6223;SDS011;3145;42.726;23.342;2024-02-28T07:39:37;43.70;;;23.43;;
6223;SDS011;3145;42.726;23.342;2024-02-28T07:42:04;35.37;;;22.53;;
6223;SDS011;3145;42.726;23.342;2024-02-28T07:44:31;36.67;;;21.70;;
6223;SDS011;3145;42.726;23.342;2024-02-28T07:46:57;36.90;;;22.60;;
6223;SDS011;3145;42.726;23.342;2024-02-28T07:49:26;36.53;;;21.53;;
6223;SDS011;3145;42.726;23.342;2024-02-28T07:51:53;39.57;;;21.87;;
6223;SDS011;3145;42.726;23.342;2024-02-28T07:54:19;36.10;;;21.33;;
6223;SDS011;3145;42.726;23.342;2024-02-28T07:56:49;40.27;;;24.70;;
6223;SDS011;3145;42.726;23.342;2024-02-28T07:59:16;34.60;;;21.50;;
6223;SDS011;3145;42.726;23.342;2024-02-28T08:01:42;35.93;;;23.80;;
6223;SDS011;3145;42.726;23.342;2024-02-28T08:04:10;31.87;;;21.27;;
6223;SDS011;3145;42.726;23.342;2024-02-28T08:06:39;37.50;;;21.67;;
6223;SDS011;3145;42.726;23.342;2024-02-28T08:09:06;35.17;;;21.97;;
6223;SDS011;3145;42.726;23.342;2024-02-28T08:11:33;29.53;;;20.00;;
6223;SDS011;3145;42.726;23.342;2024-02-28T08:14:00;29.73;;;20.37;;
6223;SDS011;3145;42.726;23.342;2024-02-28T08:16:26;30.30;;;21.27;;
6223;SDS011;3145;42.726;23.342;2024-02-28T08:18:53;37.43;;;21.90;;
6223;SDS011;3145;42.726;23.342;2024-02-28T08:21:20;31.70;;;20.33;;
6223;SDS011;3145;42.726;23.342;2024-02-28T08:23:48;35.37;;;23.20;;
6223;SDS011;3145;42.726;23.342;2024-02-28T08:26:15;28.07;;;19.93;;
6223;SDS011;3145;42.726;23.342;2024-02-28T08:28:42;28.97;;;20.37;;
6223;SDS011;3145;42.726;23.342;2024-02-28T08:31:08;26.33;;;18.63;;
6223;SDS011;3145;42.726;23.342;2024-02-28T08:33:35;24.40;;;18.07;;
6223;SDS011;3145;42.726;23.342;2024-02-28T08:36:02;30.00;;;18.27;;
6223;SDS011;3145;42.726;23.342;2024-02-28T08:38:29;27.23;;;18.57;;
6223;SDS011;3145;42.726;23.342;2024-02-28T08:40:57;27.83;;;19.77;;
6223;SDS011;3145;42.726;23.342;2024-02-28T08:43:24;27.73;;;19.77;;
6223;SDS011;3145;42.726;23.342;2024-02-28T08:45:51;32.27;;;19.63;;
6223;SDS011;3145;42.726;23.342;2024-02-28T08:48:19;31.00;;;21.23;;
6223;SDS011;3145;42.726;23.342;2024-02-28T08:50:45;32.07;;;20.03;;
6223;SDS011;3145;42.726;23.342;2024-02-28T08:53:12;31.53;;;20.47;;
6223;SDS011;3145;42.726;23.342;2024-02-28T08:55:39;34.00;;;20.20;;
6223;SDS011;3145;42.726;23.342;2024-02-28T08:58:07;41.17;;;22.87;;
6223;SDS011;3145;42.726;23.342;2024-02-28T09:00:33;36.00;;;21.50;;
6223;SDS011;3145;42.726;23.342;2024-02-28T09:03:00;26.37;;;19.17;;
6223;SDS011;3145;42.726;23.342;2024-02-28T09:05:27;32.97;;;19.80;;
6223;SDS011;3145;42.726;23.342;2024-02-28T09:07:53;34.30;;;20.00;;
6223;SDS011;3145;42.726;23.342;2024-02-28T09:10:20;31.53;;;19.93;;
6223;SDS011;3145;42.726;23.342;2024-02-28T09:12:49;31.17;;;17.87;;
6223;SDS011;3145;42.726;23.342;2024-02-28T09:15:17;28.17;;;17.60;;
6223;SDS011;3145;42.726;23.342;2024-02-28T09:17:44;29.63;;;18.10;;
6223;SDS011;3145;42.726;23.342;2024-02-28T09:20:11;27.93;;;17.53;;
6223;SDS011;3145;42.726;23.342;2024-02-28T09:22:38;33.23;;;18.20;;
6223;SDS011;3145;42.726;23.342;2024-02-28T09:25:05;23.07;;;16.60;;
6223;SDS011;3145;42.726;23.342;2024-02-28T09:27:33;29.50;;;17.87;;
6223;SDS011;3145;42.726;23.342;2024-02-28T09:30:00;22.27;;;16.17;;
6223;SDS011;3145;42.726;23.342;2024-02-28T09:32:29;27.93;;;16.40;;
6223;SDS011;3145;42.726;23.342;2024-02-28T09:34:55;29.37;;;16.77;;
6223;SDS011;3145;42.726;23.342;2024-02-28T09:37:22;33.23;;;18.23;;
6223;SDS011;3145;42.726;23.342;2024-02-28T09:39:50;27.13;;;16.43;;
6223;SDS011;3145;42.726;23.342;2024-02-28T09:42:17;27.77;;;16.40;;
6223;SDS011;3145;42.726;23.342;2024-02-28T09:44:45;20.97;;;14.90;;
6223;SDS011;3145;42.726;23.342;2024-02-28T09:47:12;20.30;;;13.60;;
6223;SDS011;3145;42.726;23.342;2024-02-28T09:49:42;21.60;;;14.20;;
6223;SDS011;3145;42.726;23.342;2024-02-28T09:52:13;21.40;;;15.23;;
6223;SDS011;3145;42.726;23.342;2024-02-28T09:54:40;26.47;;;16.10;;
6223;SDS011;3145;42.726;23.342;2024-02-28T09:57:09;20.73;;;14.40;;
6223;SDS011;3145;42.726;23.342;2024-02-28T09:59:37;27.13;;;15.00;;
6223;SDS011;3145;42.726;23.342;2024-02-28T10:02:05;20.93;;;13.53;;
6223;SDS011;3145;42.726;23.342;2024-02-28T10:04:36;17.77;;;11.10;;
6223;SDS011;3145;42.726;23.342;2024-02-28T10:07:11;13.90;;;11.57;;
6223;SDS011;3145;42.726;23.342;2024-02-28T10:09:39;16.43;;;12.60;;
6223;SDS011;3145;42.726;23.342;2024-02-28T10:12:06;17.67;;;12.47;;
6223;SDS011;3145;42.726;23.342;2024-02-28T10:14:33;19.87;;;12.60;;
6223;SDS011;3145;42.726;23.342;2024-02-28T10:16:59;19.90;;;12.03;;
6223;SDS011;3145;42.726;23.342;2024-02-28T10:19:26;15.73;;;10.93;;
6223;SDS011;3145;42.726;23.342;2024-02-28T10:21:53;15.00;;;12.13;;
6223;SDS011;3145;42.726;23.342;2024-02-28T10:24:21;19.83;;;11.90;;
6223;SDS011;3145;42.726;23.342;2024-02-28T10:26:50;18.00;;;10.23;;
6223;SDS011;3145;42.726;23.342;2024-02-28T10:29:21;18.27;;;10.80;;
6223;SDS011;3145;42.726;23.342;2024-02-28T10:31:48;11.50;;;9.27;;
6223;SDS011;3145;42.726;23.342;2024-02-28T10:34:15;21.80;;;11.77;;
6223;SDS011;3145;42.726;23.342;2024-02-28T10:36:43;16.23;;;11.53;;
6223;SDS011;3145;42.726;23.342;2024-02-28T10:39:10;15.67;;;10.20;;
6223;SDS011;3145;42.726;23.342;2024-02-28T10:41:39;19.43;;;11.40;;
6223;SDS011;3145;42.726;23.342;2024-02-28T10:44:06;21.33;;;12.77;;
6223;SDS011;3145;42.726;23.342;2024-02-28T10:46:32;21.07;;;12.40;;
6223;SDS011;3145;42.726;23.342;2024-02-28T10:48:59;20.17;;;12.87;;
6223;SDS011;3145;42.726;23.342;2024-02-28T10:51:26;16.20;;;11.57;;
6223;SDS011;3145;42.726;23.342;2024-02-28T10:53:57;14.83;;;10.53;;
6223;SDS011;3145;42.726;23.342;2024-02-28T10:56:33;15.33;;;10.67;;
6223;SDS011;3145;42.726;23.342;2024-02-28T10:59:02;12.77;;;9.53;;
6223;SDS011;3145;42.726;23.342;2024-02-28T11:01:32;13.43;;;10.13;;
6223;SDS011;3145;42.726;23.342;2024-02-28T11:04:00;19.83;;;9.83;;
6223;SDS011;3145;42.726;23.342;2024-02-28T11:06:27;16.47;;;10.57;;
6223;SDS011;3145;42.726;23.342;2024-02-28T11:08:54;15.43;;;9.93;;
6223;SDS011;3145;42.726;23.342;2024-02-28T11:11:22;16.83;;;9.37;;
6223;SDS011;3145;42.726;23.342;2024-02-28T11:13:52;14.43;;;10.00;;
6223;SDS011;3145;42.726;23.342;2024-02-28T11:16:27;12.57;;;10.00;;
6223;SDS011;3145;42.726;23.342;2024-02-28T11:18:54;11.17;;;8.37;;
6223;SDS011;3145;42.726;23.342;2024-02-28T11:21:22;9.93;;;8.90;;
6223;SDS011;3145;42.726;23.342;2024-02-28T11:23:50;12.23;;;9.37;;
6223;SDS011;3145;42.726;23.342;2024-02-28T11:26:17;16.03;;;9.40;;
6223;SDS011;3145;42.726;23.342;2024-02-28T11:28:45;12.20;;;8.67;;
6223;SDS011;3145;42.726;23.342;2024-02-28T11:31:12;11.97;;;8.10;;
6223;SDS011;3145;42.726;23.342;2024-02-28T11:33:40;11.80;;;9.23;;
6223;SDS011;3145;42.726;23.342;2024-02-28T11:36:07;14.83;;;10.50;;
6223;SDS011;3145;42.726;23.342;2024-02-28T11:38:34;15.23;;;10.47;;
6223;SDS011;3145;42.726;23.342;2024-02-28T11:41:03;12.10;;;9.60;;
6223;SDS011;3145;42.726;23.342;2024-02-28T11:43:30;14.90;;;9.33;;
6223;SDS011;3145;42.726;23.342;2024-02-28T11:45:57;14.53;;;9.40;;
6223;SDS011;3145;42.726;23.342;2024-02-28T11:48:24;10.67;;;9.13;;
6223;SDS011;3145;42.726;23.342;2024-02-28T11:50:53;11.33;;;8.60;;
6223;SDS011;3145;42.726;23.342;2024-02-28T11:53:20;10.13;;;9.13;;
6223;SDS011;3145;42.726;23.342;2024-02-28T11:55:46;15.10;;;8.03;;
6223;SDS011;3145;42.726;23.342;2024-02-28T11:58:14;10.13;;;8.47;;
6223;SDS011;3145;42.726;23.342;2024-02-28T12:00:47;7.57;;;6.73;;
6223;SDS011;3145;42.726;23.342;2024-02-28T12:03:15;8.50;;;6.63;;
6223;SDS011;3145;42.726;23.342;2024-02-28T12:05:46;11.17;;;6.30;;
6223;SDS011;3145;42.726;23.342;2024-02-28T12:08:14;10.33;;;6.37;;
6223;SDS011;3145;42.726;23.342;2024-02-28T12:10:43;8.57;;;6.53;;
6223;SDS011;3145;42.726;23.342;2024-02-28T12:13:09;9.77;;;7.40;;
6223;SDS011;3145;42.726;23.342;2024-02-28T12:15:38;11.73;;;8.00;;
6223;SDS011;3145;42.726;23.342;2024-02-28T12:18:07;8.97;;;7.83;;
6223;SDS011;3145;42.726;23.342;2024-02-28T12:20:35;12.87;;;9.47;;
6223;SDS011;3145;42.726;23.342;2024-02-28T12:23:03;13.33;;;8.20;;
6223;SDS011;3145;42.726;23.342;2024-02-28T12:25:31;11.03;;;8.47;;
6223;SDS011;3145;42.726;23.342;2024-02-28T12:27:59;13.33;;;9.17;;
6223;SDS011;3145;42.726;23.342;2024-02-28T12:30:26;14.03;;;8.57;;
6223;SDS011;3145;42.726;23.342;2024-02-28T12:32:54;11.37;;;8.10;;
6223;SDS011;3145;42.726;23.342;2024-02-28T12:35:21;11.00;;;8.17;;
6223;SDS011;3145;42.726;23.342;2024-02-28T12:37:47;14.60;;;9.00;;
6223;SDS011;3145;42.726;23.342;2024-02-28T12:40:16;15.37;;;8.13;;
6223;SDS011;3145;42.726;23.342;2024-02-28T12:42:44;14.47;;;8.90;;
6223;SDS011;3145;42.726;23.342;2024-02-28T12:45:11;11.57;;;8.43;;
6223;SDS011;3145;42.726;23.342;2024-02-28T12:47:38;10.00;;;8.00;;
6223;SDS011;3145;42.726;23.342;2024-02-28T12:50:05;13.00;;;8.63;;
6223;SDS011;3145;42.726;23.342;2024-02-28T12:52:34;13.87;;;8.43;;
6223;SDS011;3145;42.726;23.342;2024-02-28T12:55:01;12.10;;;7.97;;
6223;SDS011;3145;42.726;23.342;2024-02-28T12:57:28;8.50;;;7.63;;
6223;SDS011;3145;42.726;23.342;2024-02-28T12:59:56;10.27;;;7.63;;
6223;SDS011;3145;42.726;23.342;2024-02-28T13:02:22;8.50;;;7.60;;
6223;SDS011;3145;42.726;23.342;2024-02-28T13:04:49;14.27;;;8.37;;
6223;SDS011;3145;42.726;23.342;2024-02-28T13:07:16;12.07;;;7.60;;
6223;SDS011;3145;42.726;23.342;2024-02-28T13:09:44;10.63;;;7.37;;
6223;SDS011;3145;42.726;23.342;2024-02-28T13:12:11;12.67;;;7.53;;
6223;SDS011;3145;42.726;23.342;2024-02-28T13:14:37;12.30;;;6.87;;
6223;SDS011;3145;42.726;23.342;2024-02-28T13:17:05;9.50;;;7.20;;
6223;SDS011;3145;42.726;23.342;2024-02-28T13:19:32;13.30;;;7.57;;
6223;SDS011;3145;42.726;23.342;2024-02-28T13:21:59;6.97;;;6.23;;
6223;SDS011;3145;42.726;23.342;2024-02-28T13:24:25;6.63;;;5.97;;
6223;SDS011;3145;42.726;23.342;2024-02-28T13:26:52;10.57;;;6.20;;
6223;SDS011;3145;42.726;23.342;2024-02-28T13:29:19;10.17;;;6.73;;
6223;SDS011;3145;42.726;23.342;2024-02-28T13:31:45;6.93;;;6.23;;
6223;SDS011;3145;42.726;23.342;2024-02-28T13:34:14;9.40;;;6.43;;
6223;SDS011;3145;42.726;23.342;2024-02-28T13:36:40;7.67;;;6.67;;
6223;SDS011;3145;42.726;23.342;2024-02-28T13:39:08;10.20;;;6.63;;
6223;SDS011;3145;42.726;23.342;2024-02-28T13:41:36;7.47;;;6.00;;
6223;SDS011;3145;42.726;23.342;2024-02-28T13:44:03;7.57;;;6.20;;
6223;SDS011;3145;42.726;23.342;2024-02-28T13:46:30;9.37;;;6.80;;
6223;SDS011;3145;42.726;23.342;2024-02-28T13:48:57;16.93;;;7.23;;
6223;SDS011;3145;42.726;23.342;2024-02-28T13:51:25;10.97;;;6.53;;
6223;SDS011;3145;42.726;23.342;2024-02-28T13:53:52;7.43;;;6.17;;
6223;SDS011;3145;42.726;23.342;2024-02-28T13:56:19;9.27;;;6.30;;
6223;SDS011;3145;42.726;23.342;2024-02-28T13:58:46;9.47;;;6.23;;
6223;SDS011;3145;42.726;23.342;2024-02-28T14:01:13;8.17;;;6.70;;
6223;SDS011;3145;42.726;23.342;2024-02-28T14:03:40;7.33;;;6.43;;
6223;SDS011;3145;42.726;23.342;2024-02-28T14:06:06;13.90;;;6.23;;
6223;SDS011;3145;42.726;23.342;2024-02-28T14:08:34;10.90;;;6.77;;
6223;SDS011;3145;42.726;23.342;2024-02-28T14:11:01;11.63;;;6.63;;
6223;SDS011;3145;42.726;23.342;2024-02-28T14:13:28;11.67;;;6.10;;
6223;SDS011;3145;42.726;23.342;2024-02-28T14:15:55;7.77;;;6.57;;
6223;SDS011;3145;42.726;23.342;2024-02-28T14:18:21;7.33;;;6.17;;
6223;SDS011;3145;42.726;23.342;2024-02-28T14:20:48;9.93;;;7.00;;
6223;SDS011;3145;42.726;23.342;2024-02-28T14:23:15;9.87;;;7.20;;
6223;SDS011;3145;42.726;23.342;2024-02-28T14:25:44;11.70;;;7.20;;
6223;SDS011;3145;42.726;23.342;2024-02-28T14:28:10;8.67;;;6.73;;
6223;SDS011;3145;42.726;23.342;2024-02-28T14:30:38;9.40;;;6.33;;
6223;SDS011;3145;42.726;23.342;2024-02-28T14:33:04;8.00;;;6.07;;
6223;SDS011;3145;42.726;23.342;2024-02-28T14:35:31;10.53;;;6.37;;
6223;SDS011;3145;42.726;23.342;2024-02-28T14:37:58;11.83;;;6.73;;